Time;durP1;ratioP1;P1;durP2;ratioP2;P2;SDS_P1;SDS_P2;PMS_P1;PMS_P2;Temp;Humidity;BMP_temperature;BMP_pressure;BME280_temperature;BME280_humidity;BME280_pressure;Samples;Min_cycle;Max_cycle;Signal;HPM_P1;HPM_P2
2021/09/10 00:02:02;;;;;;;7.70;7.00;;;;;;;;;;5035282;28;20484;-83
2021/09/10 00:04:28;;;;;;;7.93;7.07;;;;;;;;;;5017475;28;20732;-82
2021/09/10 00:06:54;;;;;;;8.10;6.63;;;;;;;;;;5035451;28;20758;-81
2021/09/10 00:09:20;;;;;;;8.57;5.63;;;;;;;;;;5034690;28;20498;-82
2021/09/10 00:11:46;;;;;;;7.37;6.67;;;;;;;;;;5017528;28;20482;-82
2021/09/10 00:14:12;;;;;;;7.77;6.97;;;;;;;;;;5035425;28;20380;-83
2021/09/10 00:16:38;;;;;;;7.27;6.57;;;;;;;;;;5035212;28;20444;-82
2021/09/10 00:19:04;;;;;;;6.70;6.10;;;;;;;;;;5017251;28;20416;-80
2021/09/10 00:21:30;;;;;;;8.60;6.77;;;;;;;;;;5035229;28;20403;-81
2021/09/10 00:23:56;;;;;;;9.00;6.30;;;;;;;;;;5034888;28;20469;-80
2021/09/10 00:26:22;;;;;;;8.97;6.70;;;;;;;;;;5034958;28;20420;-82
2021/09/10 00:28:49;;;;;;;7.70;6.87;;;;;;;;;;5033573;28;20413;-80
2021/09/10 00:31:15;;;;;;;9.60;7.50;;;;;;;;;;5034846;28;20451;-83
2021/09/10 00:33:41;;;;;;;7.53;6.83;;;;;;;;;;5016968;28;20491;-80
2021/09/10 00:36:07;;;;;;;8.63;7.73;;;;;;;;;;5034623;28;20393;-83
2021/09/10 00:38:34;;;;;;;7.03;6.23;;;;;;;;;;5034361;28;20420;-81
2021/09/10 00:41:01;;;;;;;7.20;6.60;;;;;;;;;;5034516;28;20429;-83
2021/09/10 00:43:27;;;;;;;9.47;6.53;;;;;;;;;;5034540;28;20457;-82
2021/09/10 00:45:56;;;;;;;7.63;6.90;;;;;;;;;;5016726;28;20520;-84
2021/09/10 00:48:22;;;;;;;11.07;7.30;;;;;;;;;;5034427;28;20466;-80
2021/09/10 00:50:48;;;;;;;9.97;8.03;;;;;;;;;;5034118;28;20511;-81
2021/09/10 00:53:15;;;;;;;8.40;7.60;;;;;;;;;;5034393;28;20466;-82
2021/09/10 00:55:41;;;;;;;9.33;8.40;;;;;;;;;;5034453;28;20388;-83
2021/09/10 00:58:07;;;;;;;11.47;8.03;;;;;;;;;;5034281;28;20509;-83
2021/09/10 01:00:33;;;;;;;8.60;7.90;;;;;;;;;;5016714;28;20892;-82
2021/09/10 01:02:59;;;;;;;8.83;8.00;;;;;;;;;;5034102;28;20499;-80
2021/09/10 01:05:25;;;;;;;8.90;8.00;;;;;;;;;;5034291;28;20871;-82
2021/09/10 01:07:52;;;;;;;8.53;7.10;;;;;;;;;;5034416;28;20395;-84
2021/09/10 01:10:18;;;;;;;10.03;7.90;;;;;;;;;;5033451;28;20438;-80
2021/09/10 01:12:44;;;;;;;9.27;7.97;;;;;;;;;;5034212;28;20506;-80
2021/09/10 01:15:10;;;;;;;8.30;7.50;;;;;;;;;;5034050;28;20509;-81
2021/09/10 01:17:37;;;;;;;9.53;8.30;;;;;;;;;;5016175;28;20412;-83
2021/09/10 01:20:05;;;;;;;7.70;7.00;;;;;;;;;;5033665;28;20783;-83
2021/09/10 01:22:31;;;;;;;8.80;7.90;;;;;;;;;;5033718;28;20566;-83
2021/09/10 01:25:05;;;;;;;7.63;6.93;;;;;;;;;;5034114;28;20386;-80
2021/09/10 01:27:31;;;;;;;8.33;7.43;;;;;;;;;;5034000;28;20419;-79
2021/09/10 01:29:58;;;;;;;8.47;7.67;;;;;;;;;;5033368;28;20432;-84
2021/09/10 01:32:24;;;;;;;8.17;7.33;;;;;;;;;;5015887;28;20966;-80
2021/09/10 01:34:50;;;;;;;8.43;7.70;;;;;;;;;;5033786;28;20894;-81
2021/09/10 01:37:16;;;;;;;9.60;8.20;;;;;;;;;;5033621;28;20390;-82
2021/09/10 01:39:42;;;;;;;9.80;7.73;;;;;;;;;;5033032;28;20403;-83
2021/09/10 01:42:08;;;;;;;7.87;7.07;;;;;;;;;;5015916;28;20471;-81
2021/09/10 01:44:34;;;;;;;8.90;7.97;;;;;;;;;;5033456;28;20392;-80
2021/09/10 01:47:00;;;;;;;9.53;8.53;;;;;;;;;;5033449;28;20459;-81
2021/09/10 01:49:26;;;;;;;8.70;7.90;;;;;;;;;;5033109;28;20457;-82
2021/09/10 01:51:52;;;;;;;11.30;8.50;;;;;;;;;;5033728;28;20391;-84
2021/09/10 01:54:18;;;;;;;10.40;9.23;;;;;;;;;;4999400;28;20394;-83
2021/09/10 01:56:44;;;;;;;14.27;8.03;;;;;;;;;;5033504;28;20387;-80
2021/09/10 01:59:10;;;;;;;11.50;8.87;;;;;;;;;;5015427;28;20432;-81
2021/09/10 02:01:36;;;;;;;9.63;8.63;;;;;;;;;;5033356;28;20409;-81
2021/09/10 02:04:02;;;;;;;9.50;8.27;;;;;;;;;;5033121;28;20449;-81
2021/09/10 02:06:28;;;;;;;9.83;8.70;;;;;;;;;;5033159;28;20436;-80
2021/09/10 02:08:54;;;;;;;9.80;8.77;;;;;;;;;;5032742;28;20496;-80
2021/09/10 02:11:20;;;;;;;9.93;7.30;;;;;;;;;;5033172;28;20978;-83
2021/09/10 02:13:46;;;;;;;9.37;7.50;;;;;;;;;;5015673;28;20432;-81
2021/09/10 02:16:12;;;;;;;8.63;7.80;;;;;;;;;;5033336;28;20495;-81
2021/09/10 02:18:41;;;;;;;8.77;7.90;;;;;;;;;;5015208;28;20822;-83
2021/09/10 02:21:08;;;;;;;8.13;7.33;;;;;;;;;;5032979;28;20407;-82
2021/09/10 02:23:34;;;;;;;10.13;8.50;;;;;;;;;;5032998;28;20443;-80
2021/09/10 02:26:00;;;;;;;8.40;7.60;;;;;;;;;;5033061;28;20405;-82
2021/09/10 02:28:26;;;;;;;10.30;9.30;;;;;;;;;;5032688;28;20902;-82
2021/09/10 02:30:53;;;;;;;9.57;8.70;;;;;;;;;;5032530;28;20449;-82
2021/09/10 02:33:19;;;;;;;8.10;7.30;;;;;;;;;;5033075;28;20415;-83
2021/09/10 02:35:45;;;;;;;9.83;8.83;;;;;;;;;;5033046;28;20420;-81
2021/09/10 02:38:11;;;;;;;11.43;7.80;;;;;;;;;;5015243;28;20417;-80
2021/09/10 02:40:37;;;;;;;12.07;9.37;;;;;;;;;;5014601;28;20411;-81
2021/09/10 02:43:03;;;;;;;8.90;8.00;;;;;;;;;;5032735;28;20825;-80
2021/09/10 02:45:29;;;;;;;9.93;8.93;;;;;;;;;;5032913;28;20384;-82
2021/09/10 02:47:55;;;;;;;12.30;8.57;;;;;;;;;;5032808;28;20413;-80
2021/09/10 02:50:21;;;;;;;9.77;8.87;;;;;;;;;;5032407;28;20457;-82
2021/09/10 02:52:49;;;;;;;9.50;8.10;;;;;;;;;;5035123;28;20715;-81
2021/09/10 02:55:15;;;;;;;11.43;7.87;;;;;;;;;;5036565;28;20487;-82
2021/09/10 02:57:41;;;;;;;9.67;7.90;;;;;;;;;;5036850;28;20749;-81
2021/09/10 03:00:08;;;;;;;10.70;8.77;;;;;;;;;;5036463;28;20482;-83
2021/09/10 03:02:34;;;;;;;9.97;8.97;;;;;;;;;;5036730;28;20439;-83
2021/09/10 03:05:00;;;;;;;10.90;9.33;;;;;;;;;;5018679;28;20470;-82
2021/09/10 03:07:26;;;;;;;9.70;8.50;;;;;;;;;;5036376;28;20849;-81
2021/09/10 03:09:52;;;;;;;10.00;9.00;;;;;;;;;;5035930;28;20442;-84
2021/09/10 03:12:18;;;;;;;9.77;8.80;;;;;;;;;;5036414;28;20870;-81
2021/09/10 03:14:44;;;;;;;10.37;9.37;;;;;;;;;;5036306;28;20391;-80
2021/09/10 03:17:10;;;;;;;9.77;8.87;;;;;;;;;;5018343;28;20490;-81
2021/09/10 03:19:36;;;;;;;13.30;9.60;;;;;;;;;;5035956;28;20428;-83
2021/09/10 03:22:02;;;;;;;11.33;9.40;;;;;;;;;;5035979;28;20394;-86
2021/09/10 03:24:28;;;;;;;11.30;9.17;;;;;;;;;;5036190;28;20409;-82
2021/09/10 03:26:54;;;;;;;9.80;8.80;;;;;;;;;;5036247;28;20863;-84
2021/09/10 03:29:20;;;;;;;8.37;7.60;;;;;;;;;;5035443;28;20451;-84
2021/09/10 03:31:46;;;;;;;9.10;8.20;;;;;;;;;;5036465;28;20842;-84
2021/09/10 03:34:12;;;;;;;10.03;8.97;;;;;;;;;;5036364;28;20380;-84
2021/09/10 03:36:38;;;;;;;9.40;8.43;;;;;;;;;;5036224;28;20384;-84
2021/09/10 03:39:04;;;;;;;10.23;8.03;;;;;;;;;;5036241;28;20889;-84
2021/09/10 03:41:30;;;;;;;8.87;8.07;;;;;;;;;;5036467;28;20494;-81
2021/09/10 03:43:56;;;;;;;9.23;8.23;;;;;;;;;;5035942;28;20468;-85
2021/09/10 03:46:22;;;;;;;10.17;8.37;;;;;;;;;;5035778;28;20413;-80
2021/09/10 03:48:49;;;;;;;8.53;7.70;;;;;;;;;;5035623;28;20463;-84
2021/09/10 03:51:15;;;;;;;9.77;8.40;;;;;;;;;;5017871;28;20399;-83
2021/09/10 03:53:41;;;;;;;9.10;7.10;;;;;;;;;;5035543;28;20930;-84
2021/09/10 03:56:08;;;;;;;9.20;8.13;;;;;;;;;;5035754;28;20437;-84
2021/09/10 03:58:34;;;;;;;11.70;8.93;;;;;;;;;;5017931;28;20384;-82
2021/09/10 04:01:00;;;;;;;9.87;8.23;;;;;;;;;;5035586;28;20923;-84
2021/09/10 04:03:26;;;;;;;9.10;8.20;;;;;;;;;;5033999;28;20461;-84
2021/09/10 04:05:52;;;;;;;10.83;7.87;;;;;;;;;;5036835;28;20384;-81
2021/09/10 04:08:18;;;;;;;9.90;8.23;;;;;;;;;;5035358;28;20453;-82
2021/09/10 04:10:44;;;;;;;9.97;8.97;;;;;;;;;;5034905;28;20477;-82
2021/09/10 04:13:11;;;;;;;10.13;9.13;;;;;;;;;;5035550;28;20417;-80
2021/09/10 04:15:37;;;;;;;15.93;8.93;;;;;;;;;;5035165;28;20478;-83
2021/09/10 04:18:03;;;;;;;12.97;8.50;;;;;;;;;;5035455;28;20821;-83
2021/09/10 04:20:29;;;;;;;9.23;8.30;;;;;;;;;;5034749;28;20418;-81
2021/09/10 04:22:55;;;;;;;9.60;8.47;;;;;;;;;;5035173;28;20462;-83
2021/09/10 04:25:21;;;;;;;9.80;8.20;;;;;;;;;;5035067;28;20471;-82
2021/09/10 04:27:47;;;;;;;9.07;8.17;;;;;;;;;;5034977;28;20458;-82
2021/09/10 04:30:14;;;;;;;9.90;7.63;;;;;;;;;;5016955;28;20517;-85
2021/09/10 04:32:40;;;;;;;8.57;7.67;;;;;;;;;;5034923;28;20392;-83
2021/09/10 04:35:07;;;;;;;9.50;8.17;;;;;;;;;;5034865;28;20419;-81
2021/09/10 04:37:33;;;;;;;12.07;8.90;;;;;;;;;;5034680;28;20422;-81
2021/09/10 04:40:00;;;;;;;8.80;7.90;;;;;;;;;;5034384;28;20436;-80
2021/09/10 04:42:26;;;;;;;9.70;8.07;;;;;;;;;;5034620;28;21054;-82
2021/09/10 04:44:52;;;;;;;8.90;8.20;;;;;;;;;;5034795;28;20413;-81
2021/09/10 04:47:18;;;;;;;8.63;7.77;;;;;;;;;;5017082;28;20405;-84
2021/09/10 04:49:45;;;;;;;8.37;7.50;;;;;;;;;;5034039;28;20404;-82
2021/09/10 04:52:11;;;;;;;8.77;7.87;;;;;;;;;;5034518;28;20416;-79
2021/09/10 04:54:37;;;;;;;9.77;7.83;;;;;;;;;;5034392;28;20473;-80
2021/09/10 04:57:03;;;;;;;11.37;8.20;;;;;;;;;;5034739;28;20392;-80
2021/09/10 04:59:29;;;;;;;9.57;7.50;;;;;;;;;;5016466;28;20408;-82
2021/09/10 05:01:55;;;;;;;9.70;8.63;;;;;;;;;;5016428;28;20406;-83
2021/09/10 05:04:24;;;;;;;9.43;8.50;;;;;;;;;;5034226;28;20399;-84
2021/09/10 05:06:53;;;;;;;10.10;7.80;;;;;;;;;;5017367;28;20767;-85
2021/09/10 05:09:20;;;;;;;8.83;8.00;;;;;;;;;;5033686;28;20480;-83
2021/09/10 05:11:46;;;;;;;10.20;8.50;;;;;;;;;;5034501;28;20405;-83
2021/09/10 05:14:14;;;;;;;7.93;7.10;;;;;;;;;;5033942;28;20773;-81
2021/09/10 05:16:40;;;;;;;10.70;8.40;;;;;;;;;;5034070;28;20405;-82
2021/09/10 05:19:06;;;;;;;8.20;7.33;;;;;;;;;;5033739;28;20715;-80
2021/09/10 05:21:32;;;;;;;9.10;8.20;;;;;;;;;;5034229;28;20438;-84
2021/09/10 05:23:58;;;;;;;13.33;8.67;;;;;;;;;;5033835;28;20523;-81
2021/09/10 05:26:25;;;;;;;8.73;7.83;;;;;;;;;;5033817;28;20388;-80
2021/09/10 05:28:51;;;;;;;8.10;7.40;;;;;;;;;;5033539;28;20401;-81
2021/09/10 05:31:17;;;;;;;8.70;7.80;;;;;;;;;;5016350;28;20899;-83
2021/09/10 05:33:43;;;;;;;8.93;8.03;;;;;;;;;;5034033;28;20409;-81
2021/09/10 05:36:09;;;;;;;9.67;8.67;;;;;;;;;;5043654;28;20420;-80
2021/09/10 05:38:35;;;;;;;12.03;8.57;;;;;;;;;;5034898;28;20909;-82
2021/09/10 05:41:01;;;;;;;9.83;8.90;;;;;;;;;;5033647;28;20429;-83
2021/09/10 05:43:27;;;;;;;9.33;8.50;;;;;;;;;;5033724;28;20780;-80
2021/09/10 05:45:53;;;;;;;9.73;8.80;;;;;;;;;;5033778;28;20384;-81
2021/09/10 05:48:19;;;;;;;9.83;8.70;;;;;;;;;;5033508;28;20802;-81
2021/09/10 05:50:48;;;;;;;9.50;8.67;;;;;;;;;;5033234;28;20793;-81
2021/09/10 05:53:14;;;;;;;9.40;8.40;;;;;;;;;;5015926;28;20432;-83
2021/09/10 05:55:41;;;;;;;10.10;8.37;;;;;;;;;;5033493;28;20392;-82
2021/09/10 05:58:07;;;;;;;11.80;9.40;;;;;;;;;;5033567;28;20437;-85
2021/09/10 06:00:33;;;;;;;9.97;8.10;;;;;;;;;;5032910;28;20449;-77
2021/09/10 06:02:59;;;;;;;9.70;8.80;;;;;;;;;;5033191;28;20555;-77
2021/09/10 06:05:25;;;;;;;11.10;8.80;;;;;;;;;;5033304;28;20462;-79
2021/09/10 06:07:51;;;;;;;9.63;8.60;;;;;;;;;;5033440;28;20760;-81
2021/09/10 06:10:18;;;;;;;9.40;8.40;;;;;;;;;;5032523;28;20460;-81
2021/09/10 06:12:44;;;;;;;9.30;7.73;;;;;;;;;;5033284;28;20375;-78
2021/09/10 06:15:11;;;;;;;8.70;7.30;;;;;;;;;;5015448;28;20983;-81
2021/09/10 06:17:37;;;;;;;7.63;6.93;;;;;;;;;;5033083;28;20784;-79
2021/09/10 06:20:03;;;;;;;7.47;6.77;;;;;;;;;;5032809;28;20411;-81
2021/09/10 06:22:29;;;;;;;7.63;6.83;;;;;;;;;;5032845;28;20465;-81
2021/09/10 06:24:55;;;;;;;9.27;6.87;;;;;;;;;;5033344;28;20463;-80
2021/09/10 06:27:21;;;;;;;6.63;5.57;;;;;;;;;;5035178;28;20387;-81
2021/09/10 06:29:47;;;;;;;6.97;6.37;;;;;;;;;;5037655;28;20411;-80
2021/09/10 06:32:13;;;;;;;6.10;5.50;;;;;;;;;;5037398;28;20898;-80
2021/09/10 06:34:39;;;;;;;6.40;5.90;;;;;;;;;;5037634;28;20421;-80
2021/09/10 06:37:05;;;;;;;7.63;5.37;;;;;;;;;;5037012;28;20516;-80
2021/09/10 06:39:31;;;;;;;5.93;5.33;;;;;;;;;;5036713;28;20499;-81
2021/09/10 06:41:57;;;;;;;6.83;6.13;;;;;;;;;;5036777;28;20408;-81
2021/09/10 06:44:23;;;;;;;5.70;5.10;;;;;;;;;;5019123;28;20917;-79
2021/09/10 06:46:49;;;;;;;5.50;5.10;;;;;;;;;;5036594;28;20434;-82
2021/09/10 06:49:15;;;;;;;4.97;4.50;;;;;;;;;;5036298;28;20547;-79
2021/09/10 06:51:42;;;;;;;7.80;5.83;;;;;;;;;;5036710;28;20771;-77
2021/09/10 06:54:08;;;;;;;6.77;5.10;;;;;;;;;;5036653;28;20422;-78
2021/09/10 06:56:35;;;;;;;6.43;5.37;;;;;;;;;;5036540;28;20425;-80
2021/09/10 06:59:01;;;;;;;7.00;6.00;;;;;;;;;;5036244;28;20463;-80
2021/09/10 07:01:27;;;;;;;8.77;6.63;;;;;;;;;;5036675;28;20796;-80
2021/09/10 07:03:53;;;;;;;5.87;5.37;;;;;;;;;;5036671;28;20464;-81
2021/09/10 07:06:19;;;;;;;8.70;5.80;;;;;;;;;;5036443;28;20478;-80
2021/09/10 07:11:20;;;;;;;7.67;6.10;;;;;;;;;;6129814;22;20342;-80
2021/09/10 07:13:47;;;;;;;6.00;4.83;;;;;;;;;;4998170;28;20405;-85
2021/09/10 07:16:13;;;;;;;7.63;5.23;;;;;;;;;;4999045;28;20416;-80
2021/09/10 07:18:39;;;;;;;6.43;5.67;;;;;;;;;;5016790;28;20496;-81
2021/09/10 07:21:05;;;;;;;7.57;5.23;;;;;;;;;;5016236;28;20971;-81
2021/09/10 07:23:32;;;;;;;6.13;5.43;;;;;;;;;;5016287;28;20489;-78
2021/09/10 07:26:02;;;;;;;5.20;4.80;;;;;;;;;;5016694;28;20406;-81
2021/09/10 07:28:28;;;;;;;6.97;5.73;;;;;;;;;;5016305;28;20916;-78
2021/09/10 07:30:54;;;;;;;6.07;5.67;;;;;;;;;;5016033;28;20422;-79
2021/09/10 07:33:20;;;;;;;6.83;5.07;;;;;;;;;;5015910;28;20981;-79
2021/09/10 07:35:46;;;;;;;5.00;4.30;;;;;;;;;;5016108;28;20464;-80
2021/09/10 07:38:12;;;;;;;8.03;4.90;;;;;;;;;;4998438;28;20488;-79
2021/09/10 07:40:38;;;;;;;7.03;4.83;;;;;;;;;;5015923;28;20871;-80
2021/09/10 07:43:04;;;;;;;4.90;4.30;;;;;;;;;;4998012;28;20560;-81
2021/09/10 07:45:30;;;;;;;5.90;5.27;;;;;;;;;;5016094;28;20413;-80
2021/09/10 07:47:56;;;;;;;5.63;4.70;;;;;;;;;;5016099;28;20392;-80
2021/09/10 07:50:22;;;;;;;5.17;4.37;;;;;;;;;;4998225;28;20426;-85
2021/09/10 07:52:48;;;;;;;4.40;4.00;;;;;;;;;;5015750;28;20510;-82
2021/09/10 07:55:14;;;;;;;4.33;3.93;;;;;;;;;;5015755;28;20472;-81
2021/09/10 07:57:40;;;;;;;4.70;4.20;;;;;;;;;;5015685;28;20398;-80
2021/09/10 08:00:06;;;;;;;5.27;4.00;;;;;;;;;;5015881;28;20800;-83
2021/09/10 08:02:32;;;;;;;5.43;4.93;;;;;;;;;;5015269;28;20432;-81
2021/09/10 08:04:59;;;;;;;5.10;3.97;;;;;;;;;;5015968;28;20398;-80
2021/09/10 08:07:25;;;;;;;4.70;3.90;;;;;;;;;;5016643;28;20935;-84
2021/09/10 08:09:51;;;;;;;4.40;3.83;;;;;;;;;;5015446;28;20501;-82
2021/09/10 08:12:17;;;;;;;4.27;3.60;;;;;;;;;;5015030;28;20817;-82
2021/09/10 08:14:43;;;;;;;4.93;3.67;;;;;;;;;;5015503;28;20410;-80
2021/09/10 08:17:09;;;;;;;3.63;3.33;;;;;;;;;;5015323;28;20451;-80
2021/09/10 08:19:35;;;;;;;9.73;3.53;;;;;;;;;;4997729;28;20429;-83
2021/09/10 08:22:01;;;;;;;4.13;3.50;;;;;;;;;;5014831;28;20436;-78
2021/09/10 08:24:27;;;;;;;5.67;3.80;;;;;;;;;;4998071;28;20412;-82
2021/09/10 08:26:53;;;;;;;3.70;3.23;;;;;;;;;;4997674;28;20906;-79
2021/09/10 08:29:19;;;;;;;4.20;3.20;;;;;;;;;;4997569;28;20418;-81
2021/09/10 08:31:46;;;;;;;3.67;3.37;;;;;;;;;;4997466;28;20430;-82
2021/09/10 08:34:12;;;;;;;4.57;3.60;;;;;;;;;;5015195;28;20432;-81
2021/09/10 08:36:38;;;;;;;4.20;3.80;;;;;;;;;;5015262;28;20422;-80
2021/09/10 08:39:04;;;;;;;3.37;3.07;;;;;;;;;;4997565;28;20430;-79
2021/09/10 08:41:32;;;;;;;3.20;2.90;;;;;;;;;;5014447;28;20964;-82
2021/09/10 08:44:02;;;;;;;6.33;2.50;;;;;;;;;;4996965;28;20520;-80
2021/09/10 08:46:28;;;;;;;3.40;3.10;;;;;;;;;;5014860;28;20413;-79
2021/09/10 08:48:54;;;;;;;3.10;2.80;;;;;;;;;;5014418;28;20481;-83
2021/09/10 08:51:20;;;;;;;4.43;2.90;;;;;;;;;;5013939;28;20871;-83
2021/09/10 08:53:47;;;;;;;3.10;2.90;;;;;;;;;;5014887;28;20402;-80
2021/09/10 08:56:13;;;;;;;7.17;3.50;;;;;;;;;;4997182;28;20475;-82
2021/09/10 08:58:39;;;;;;;3.30;3.00;;;;;;;;;;5027643;28;20781;-81
2021/09/10 09:01:05;;;;;;;3.83;3.10;;;;;;;;;;5034146;28;20448;-80
2021/09/10 09:03:32;;;;;;;3.60;3.30;;;;;;;;;;5034305;28;20467;-79
2021/09/10 09:05:59;;;;;;;4.13;2.60;;;;;;;;;;5016920;28;20416;-82
2021/09/10 09:08:25;;;;;;;3.47;2.90;;;;;;;;;;5000249;28;20916;-81
2021/09/10 09:10:59;;;;;;;3.40;2.63;;;;;;;;;;5034046;28;20499;-81
2021/09/10 09:13:29;;;;;;;3.20;2.90;;;;;;;;;;5034184;28;20425;-82
2021/09/10 09:16:12;;;;;;;4.70;2.70;;;;;;;;;;5016542;28;20413;-81
2021/09/10 09:18:50;;;;;;;3.50;3.20;;;;;;;;;;5034081;28;20409;-84
2021/09/10 09:21:25;;;;;;;3.70;3.40;;;;;;;;;;5033735;28;20534;-83
2021/09/10 09:23:52;;;;;;;3.03;2.70;;;;;;;;;;5034224;28;20456;-80
2021/09/10 09:26:22;;;;;;;2.97;2.77;;;;;;;;;;5034019;28;20475;-79
2021/09/10 09:28:48;;;;;;;3.13;2.80;;;;;;;;;;5034010;28;20405;-80
2021/09/10 09:31:18;;;;;;;3.80;3.50;;;;;;;;;;5016162;28;20436;-81
2021/09/10 09:33:45;;;;;;;5.30;3.40;;;;;;;;;;5033955;28;20416;-81
2021/09/10 09:36:17;;;;;;;2.90;2.60;;;;;;;;;;5033750;28;20420;-78
2021/09/10 09:38:44;;;;;;;4.63;2.40;;;;;;;;;;5015799;28;20925;-78
2021/09/10 09:41:14;;;;;;;4.13;2.60;;;;;;;;;;5033243;28;20876;-79
2021/09/10 09:43:41;;;;;;;4.13;2.77;;;;;;;;;;5033881;28;20475;-79
2021/09/10 09:46:09;;;;;;;3.40;3.07;;;;;;;;;;5033575;28;20401;-78
2021/09/10 09:48:37;;;;;;;4.03;3.10;;;;;;;;;;5015852;28;20966;-78
2021/09/10 09:51:04;;;;;;;5.07;3.60;;;;;;;;;;5015500;28;20433;-79
2021/09/10 09:53:30;;;;;;;5.30;4.17;;;;;;;;;;5021873;28;20387;-80
2021/09/10 09:55:57;;;;;;;4.17;3.47;;;;;;;;;;5016564;28;20904;-80
2021/09/10 09:58:23;;;;;;;4.20;3.43;;;;;;;;;;5033499;28;20416;-80
2021/09/10 10:00:49;;;;;;;6.13;3.43;;;;;;;;;;5015387;28;20433;-80
2021/09/10 10:03:15;;;;;;;4.80;3.90;;;;;;;;;;5033244;28;20931;-82
2021/09/10 10:05:47;;;;;;;3.60;3.20;;;;;;;;;;5033272;28;20808;-80
2021/09/10 10:08:16;;;;;;;5.40;3.60;;;;;;;;;;5033355;28;20789;-82
2021/09/10 10:10:45;;;;;;;5.13;3.40;;;;;;;;;;5032657;28;20779;-81
2021/09/10 10:13:14;;;;;;;5.10;3.47;;;;;;;;;;5033148;28;20429;-80
2021/09/10 10:15:43;;;;;;;2.90;2.70;;;;;;;;;;5033209;28;20408;-81
2021/09/10 10:18:09;;;;;;;2.90;2.60;;;;;;;;;;5033111;28;20415;-80
2021/09/10 10:20:47;;;;;;;3.10;2.80;;;;;;;;;;5015310;28;20511;-81
2021/09/10 10:23:32;;;;;;;5.07;3.07;;;;;;;;;;5015302;28;20467;-80
2021/09/10 10:26:07;;;;;;;3.50;2.50;;;;;;;;;;5033195;28;20839;-81
2021/09/10 10:28:43;;;;;;;5.40;3.10;;;;;;;;;;5033087;28;20405;-80
2021/09/10 10:31:09;;;;;;;3.23;2.10;;;;;;;;;;5032679;28;20996;-79
2021/09/10 10:33:35;;;;;;;4.47;3.03;;;;;;;;;;5033410;28;20388;-79
2021/09/10 10:36:20;;;;;;;2.97;2.50;;;;;;;;;;5033395;28;20491;-79
2021/09/10 10:39:04;;;;;;;3.60;2.70;;;;;;;;;;5015510;28;20412;-79
2021/09/10 10:41:43;;;;;;;3.80;2.77;;;;;;;;;;5033111;28;20436;-79
2021/09/10 10:44:36;;;;;;;4.40;3.07;;;;;;;;;;5015380;28;20457;-83
2021/09/10 10:47:05;;;;;;;5.30;2.47;;;;;;;;;;4986055;28;20496;-83
2021/09/10 10:49:35;;;;;;;3.80;2.50;;;;;;;;;;5033381;28;20427;-79
2021/09/10 10:52:01;;;;;;;4.30;2.00;;;;;;;;;;5032994;28;20421;-82
2021/09/10 10:54:28;;;;;;;2.43;2.23;;;;;;;;;;5033083;28;20455;-83
2021/09/10 10:56:55;;;;;;;4.67;2.27;;;;;;;;;;5033216;28;20479;-79
2021/09/10 10:59:25;;;;;;;2.20;2.00;;;;;;;;;;5016043;28;20433;-80
2021/09/10 11:02:10;;;;;;;2.70;2.00;;;;;;;;;;5033130;28;20556;-80
2021/09/10 11:04:40;;;;;;;4.90;2.80;;;;;;;;;;5033441;28;20438;-80
2021/09/10 11:07:06;;;;;;;2.37;2.10;;;;;;;;;;5033200;28;20408;-83
2021/09/10 11:09:33;;;;;;;7.47;2.53;;;;;;;;;;5015256;28;20416;-82
2021/09/10 11:11:59;;;;;;;2.13;1.97;;;;;;;;;;5032784;28;20821;-78
2021/09/10 11:14:34;;;;;;;4.33;3.07;;;;;;;;;;5036245;28;20412;-79
2021/09/10 11:17:10;;;;;;;2.63;2.43;;;;;;;;;;5038865;28;20882;-81
2021/09/10 11:19:36;;;;;;;3.87;2.60;;;;;;;;;;5036818;28;20479;-80
2021/09/10 11:22:02;;;;;;;5.07;2.30;;;;;;;;;;5036343;28;20429;-78
2021/09/10 11:24:31;;;;;;;2.30;2.10;;;;;;;;;;5036455;28;20400;-80
2021/09/10 11:26:57;;;;;;;2.40;2.13;;;;;;;;;;5018798;28;20397;-83
2021/09/10 11:29:23;;;;;;;2.43;1.90;;;;;;;;;;5035924;28;20402;-79
2021/09/10 11:31:49;;;;;;;3.37;2.20;;;;;;;;;;5018390;28;20432;-79
2021/09/10 11:34:32;;;;;;;2.70;2.07;;;;;;;;;;5018757;28;20405;-81
2021/09/10 11:37:04;;;;;;;2.10;1.90;;;;;;;;;;5018360;28;20419;-78
2021/09/10 11:39:31;;;;;;;2.27;2.00;;;;;;;;;;5018226;28;20480;-79
2021/09/10 11:41:57;;;;;;;1.83;1.73;;;;;;;;;;5035425;28;20468;-78
2021/09/10 11:44:23;;;;;;;2.93;2.20;;;;;;;;;;5017928;28;20500;-79
2021/09/10 11:46:49;;;;;;;3.13;2.00;;;;;;;;;;5035961;28;20404;-78
2021/09/10 11:49:16;;;;;;;2.50;2.23;;;;;;;;;;5018427;28;20489;-78
2021/09/10 11:51:46;;;;;;;2.30;2.10;;;;;;;;;;5006449;28;20536;-78
2021/09/10 11:54:13;;;;;;;2.70;2.20;;;;;;;;;;5015926;28;20456;-77
2021/09/10 11:56:40;;;;;;;2.50;2.30;;;;;;;;;;5015815;28;20418;-78
2021/09/10 11:59:38;;;;;;;2.50;1.93;;;;;;;;;;5015968;28;20412;-79
2021/09/10 12:02:10;;;;;;;3.57;2.20;;;;;;;;;;4976244;28;20529;-78
2021/09/10 12:04:36;;;;;;;3.33;1.90;;;;;;;;;;5015793;28;20966;-78
2021/09/10 12:07:04;;;;;;;2.03;1.93;;;;;;;;;;5018566;28;20806;-79
2021/09/10 12:09:30;;;;;;;3.57;2.50;;;;;;;;;;5015464;28;20409;-77
2021/09/10 12:12:01;;;;;;;3.80;2.50;;;;;;;;;;5014691;28;20484;-79
2021/09/10 12:14:30;;;;;;;7.33;2.63;;;;;;;;;;5015297;28;20406;-77
2021/09/10 12:17:14;;;;;;;2.50;2.30;;;;;;;;;;4997676;28;20414;-79
2021/09/10 12:19:46;;;;;;;2.33;2.13;;;;;;;;;;4997685;28;20402;-78
2021/09/10 12:22:45;;;;;;;3.50;1.60;;;;;;;;;;5015198;28;20804;-78
2021/09/10 12:25:17;;;;;;;3.10;1.70;;;;;;;;;;4975246;28;20805;-78
2021/09/10 12:27:44;;;;;;;2.30;1.53;;;;;;;;;;5015151;28;20981;-78
2021/09/10 12:30:14;;;;;;;2.40;1.20;;;;;;;;;;4997589;28;20501;-79
2021/09/10 12:32:40;;;;;;;3.43;1.20;;;;;;;;;;4997107;28;20438;-78
2021/09/10 12:35:06;;;;;;;2.33;1.53;;;;;;;;;;5015364;28;20426;-79
2021/09/10 12:37:32;;;;;;;2.50;1.20;;;;;;;;;;5014896;28;20764;-78
2021/09/10 12:39:58;;;;;;;2.83;1.47;;;;;;;;;;4997264;28;20417;-78
2021/09/10 12:42:25;;;;;;;1.80;1.10;;;;;;;;;;5014351;28;20469;-78
2021/09/10 12:44:51;;;;;;;3.07;1.77;;;;;;;;;;5014977;28;20410;-78
2021/09/10 12:47:17;;;;;;;2.70;1.23;;;;;;;;;;5015054;28;20895;-78
2021/09/10 12:49:43;;;;;;;3.17;1.53;;;;;;;;;;5014996;28;20493;-77
2021/09/10 12:52:10;;;;;;;2.57;1.80;;;;;;;;;;5014400;28;20434;-78
2021/09/10 12:54:36;;;;;;;3.27;1.70;;;;;;;;;;5014037;28;20410;-78
2021/09/10 12:57:02;;;;;;;2.20;1.47;;;;;;;;;;5014213;28;20414;-78
2021/09/10 12:59:28;;;;;;;3.87;1.50;;;;;;;;;;5014329;28;20933;-77
2021/09/10 13:01:54;;;;;;;4.10;2.47;;;;;;;;;;5014038;28;20430;-78
2021/09/10 13:04:20;;;;;;;2.50;1.63;;;;;;;;;;5014210;28;20472;-78
2021/09/10 13:06:46;;;;;;;2.23;1.83;;;;;;;;;;4997356;28;20859;-78
2021/09/10 13:09:12;;;;;;;3.30;1.63;;;;;;;;;;5015001;28;20504;-78
2021/09/10 13:11:38;;;;;;;2.10;1.53;;;;;;;;;;5016276;28;20550;-79
2021/09/10 13:14:04;;;;;;;4.83;1.67;;;;;;;;;;4996795;28;20468;-79
2021/09/10 13:16:30;;;;;;;6.07;1.50;;;;;;;;;;4996642;28;20445;-78
2021/09/10 13:18:56;;;;;;;3.50;1.83;;;;;;;;;;4996809;28;20418;-78
2021/09/10 13:21:22;;;;;;;3.77;1.60;;;;;;;;;;5013868;28;20488;-77
2021/09/10 13:23:48;;;;;;;2.50;1.80;;;;;;;;;;4996704;28;20985;-78
2021/09/10 13:26:14;;;;;;;3.23;1.77;;;;;;;;;;4996671;28;20468;-77
2021/09/10 13:28:40;;;;;;;6.23;1.47;;;;;;;;;;5013975;28;20406;-78
2021/09/10 13:31:07;;;;;;;3.00;1.60;;;;;;;;;;5013616;28;20794;-78
2021/09/10 13:33:33;;;;;;;1.60;1.30;;;;;;;;;;5014002;28;20406;-78
2021/09/10 13:35:59;;;;;;;1.13;1.03;;;;;;;;;;5013847;28;20417;-78
2021/09/10 13:38:25;;;;;;;1.47;1.37;;;;;;;;;;5013827;28;20421;-78
2021/09/10 13:40:51;;;;;;;2.17;1.43;;;;;;;;;;5013324;28;20422;-78
2021/09/10 13:43:17;;;;;;;1.30;1.20;;;;;;;;;;4996286;28;20503;-78
2021/09/10 13:45:43;;;;;;;1.47;1.37;;;;;;;;;;5013840;28;20406;-77
2021/09/10 13:48:09;;;;;;;1.33;1.23;;;;;;;;;;5013610;28;20440;-78
2021/09/10 13:50:35;;;;;;;2.70;1.00;;;;;;;;;;5013502;28;20870;-78
2021/09/10 13:53:01;;;;;;;3.57;1.50;;;;;;;;;;5013244;28;20433;-79
2021/09/10 13:55:27;;;;;;;7.63;2.30;;;;;;;;;;5013914;28;20445;-77
2021/09/10 13:57:53;;;;;;;4.23;1.50;;;;;;;;;;5013614;28;20415;-78
2021/09/10 14:00:19;;;;;;;5.33;1.67;;;;;;;;;;5013188;28;20444;-79
2021/09/10 14:02:46;;;;;;;2.80;1.37;;;;;;;;;;5013107;28;20462;-77
2021/09/10 14:05:12;;;;;;;3.70;1.30;;;;;;;;;;5013761;28;20448;-81
2021/09/10 14:07:38;;;;;;;9.57;2.00;;;;;;;;;;4996250;28;20512;-79
2021/09/10 14:10:04;;;;;;;3.13;1.20;;;;;;;;;;4996107;28;20630;-81
2021/09/10 14:12:31;;;;;;;2.40;1.33;;;;;;;;;;5012959;28;20428;-81
2021/09/10 14:14:57;;;;;;;3.30;1.60;;;;;;;;;;5013441;28;20442;-79
2021/09/10 14:17:23;;;;;;;4.97;1.57;;;;;;;;;;5013514;28;20918;-81
2021/09/10 14:19:49;;;;;;;3.13;1.57;;;;;;;;;;5013865;28;20453;-82
2021/09/10 14:22:15;;;;;;;1.73;1.50;;;;;;;;;;5014785;28;20438;-83
2021/09/10 14:24:41;;;;;;;3.80;1.80;;;;;;;;;;5013261;28;20396;-84
2021/09/10 14:27:08;;;;;;;3.43;1.57;;;;;;;;;;5013435;28;20410;-82
2021/09/10 14:29:34;;;;;;;5.63;1.90;;;;;;;;;;4996013;28;20514;-83
2021/09/10 14:32:00;;;;;;;4.47;2.27;;;;;;;;;;5013145;28;20433;-79
2021/09/10 14:34:30;;;;;;;4.47;2.43;;;;;;;;;;5013283;28;20819;-80
2021/09/10 14:36:56;;;;;;;5.13;1.73;;;;;;;;;;5013262;28;20392;-84
2021/09/10 14:39:22;;;;;;;3.73;2.00;;;;;;;;;;5013361;28;20826;-83
2021/09/10 14:41:48;;;;;;;3.73;1.30;;;;;;;;;;4995281;28;20438;-79
2021/09/10 14:44:15;;;;;;;2.80;1.40;;;;;;;;;;4995829;28;20552;-81